createdAt,value
2022-12-15T00:01:59.156Z,-6.00
2022-12-15T00:04:44.639Z,-6.20
2022-12-15T00:07:30.072Z,-6.30
2022-12-15T00:10:15.400Z,-6.40
2022-12-15T00:13:00.744Z,-6.60
2022-12-15T00:15:46.284Z,-6.70
2022-12-15T00:18:31.462Z,-6.60
2022-12-15T00:21:18.470Z,-6.20
2022-12-15T00:24:04.030Z,-6.20
2022-12-15T00:26:49.343Z,-6.40
2022-12-15T00:29:34.867Z,-6.50
2022-12-15T00:32:20.228Z,-6.60
2022-12-15T00:35:05.654Z,-6.60
2022-12-15T00:37:51.012Z,-6.40
2022-12-15T00:40:17.841Z,-6.50
2022-12-15T00:42:44.536Z,-6.60
2022-12-15T00:45:16.371Z,-6.60
2022-12-15T00:47:43.107Z,-6.40
2022-12-15T00:50:28.594Z,-6.30
2022-12-15T00:53:14.119Z,-6.40
2022-12-15T00:55:59.603Z,-6.50
2022-12-15T00:58:45.084Z,-6.60
2022-12-15T01:01:30.695Z,-6.60
2022-12-15T01:04:15.952Z,-6.50
2022-12-15T01:07:01.136Z,-6.20
2022-12-15T01:09:46.652Z,-6.30
2022-12-15T01:12:32.254Z,-6.30
2022-12-15T01:15:17.660Z,-6.20
2022-12-15T01:18:03.151Z,-6.30
2022-12-15T01:20:34.573Z,-6.30
2022-12-15T01:23:01.400Z,-6.30
2022-12-15T01:25:29.056Z,-6.40
2022-12-15T01:27:55.878Z,-6.30
2022-12-15T01:30:25.512Z,-6.10
2022-12-15T01:35:32.861Z,-6.20
2022-12-15T01:38:00.496Z,-6.20
2022-12-15T01:40:45.224Z,-6.30
2022-12-15T01:43:18.914Z,-6.40
2022-12-15T01:45:48.325Z,-6.40
2022-12-15T01:48:20.943Z,-6.30
2022-12-15T01:51:10.626Z,-6.10
2022-12-15T01:53:45.516Z,-6.00
2022-12-15T01:56:16.965Z,-6.00
2022-12-15T01:58:45.820Z,-5.90
2022-12-15T02:01:12.686Z,-5.80
2022-12-15T02:03:41.245Z,-6.00
2022-12-15T02:06:09.298Z,-6.00
2022-12-15T02:08:37.871Z,-6.00
2022-12-15T02:11:35.656Z,-5.90
2022-12-15T02:14:02.417Z,-6.00
2022-12-15T02:17:06.667Z,-6.10
2022-12-15T02:19:48.583Z,-5.90
2022-12-15T02:22:47.361Z,-5.90
2022-12-15T02:25:39.743Z,-5.90
2022-12-15T02:28:16.249Z,-5.80
2022-12-15T02:31:22.771Z,-5.90
2022-12-15T02:34:00.275Z,-6.10
2022-12-15T02:36:33.027Z,-6.30
2022-12-15T02:38:59.757Z,-6.40
2022-12-15T02:41:35.268Z,-6.30
2022-12-15T02:44:08.937Z,-6.30
2022-12-15T02:46:49.958Z,-6.00
2022-12-15T02:49:46.198Z,-5.90
2022-12-15T02:52:29.217Z,-6.00
2022-12-15T02:54:58.676Z,-5.90
2022-12-15T02:57:32.414Z,-6.00
2022-12-15T03:00:06.857Z,-6.00
2022-12-15T03:02:35.591Z,-6.30
2022-12-15T03:05:02.772Z,-6.50
2022-12-15T03:07:29.528Z,-6.50
2022-12-15T03:09:59.420Z,-6.50
2022-12-15T03:12:26.185Z,-6.50
2022-12-15T03:14:53.193Z,-6.50
2022-12-15T03:17:19.923Z,-6.50
2022-12-15T03:19:46.674Z,-6.40
2022-12-15T03:22:16.635Z,-6.40
2022-12-15T03:24:43.417Z,-6.20
2022-12-15T03:27:10.158Z,-6.10
2022-12-15T03:29:36.833Z,-6.00
2022-12-15T03:32:03.881Z,-6.00
2022-12-15T03:34:30.620Z,-6.00
2022-12-15T03:36:57.616Z,-6.10
2022-12-15T03:39:24.295Z,-6.00
2022-12-15T03:41:50.997Z,-6.00
2022-12-15T03:44:17.731Z,-6.00
2022-12-15T03:46:44.386Z,-6.00
2022-12-15T03:49:11.360Z,-5.90
2022-12-15T03:51:38.157Z,-6.10
2022-12-15T03:54:04.840Z,-6.30
2022-12-15T03:56:32.509Z,-6.30
2022-12-15T03:58:59.208Z,-6.30
2022-12-15T04:01:34.122Z,-6.30
2022-12-15T04:04:02.284Z,-6.30
2022-12-15T04:06:30.034Z,-6.30
2022-12-15T04:08:56.906Z,-6.40
2022-12-15T04:11:23.616Z,-6.30
2022-12-15T04:13:50.276Z,-6.30
2022-12-15T04:16:20.080Z,-6.20
2022-12-15T04:19:07.645Z,-6.00
2022-12-15T04:21:34.320Z,-5.80
2022-12-15T04:24:19.427Z,-5.80
2022-12-15T04:27:04.967Z,-5.70
2022-12-15T04:29:50.355Z,-5.70
2022-12-15T04:32:35.809Z,-5.70
2022-12-15T04:35:21.408Z,-5.70
2022-12-15T04:38:06.809Z,-5.70
2022-12-15T04:40:52.334Z,-5.70
2022-12-15T04:43:37.833Z,-5.70
2022-12-15T04:46:23.341Z,-5.70
2022-12-15T04:49:08.612Z,-5.70
2022-12-15T04:51:54.127Z,-5.80
2022-12-15T04:54:39.733Z,-5.90
2022-12-15T04:57:25.763Z,-5.90
2022-12-15T05:00:11.373Z,-6.00
2022-12-15T05:02:56.863Z,-5.80
2022-12-15T05:05:42.344Z,-5.70
2022-12-15T05:08:27.892Z,-5.60
2022-12-15T05:11:13.209Z,-5.60
2022-12-15T05:13:58.648Z,-5.70
2022-12-15T05:16:44.165Z,-5.80
2022-12-15T05:19:29.492Z,-5.90
2022-12-15T05:22:14.989Z,-5.80
2022-12-15T05:25:00.631Z,-5.70
2022-12-15T05:27:46.012Z,-5.70
2022-12-15T05:30:31.408Z,-5.60
2022-12-15T05:32:58.184Z,-5.70
2022-12-15T05:35:25.052Z,-5.60
2022-12-15T05:37:51.729Z,-5.60
2022-12-15T05:40:18.386Z,-5.70
2022-12-15T05:42:49.955Z,-5.70
2022-12-15T05:45:17.111Z,-5.80
2022-12-15T05:47:43.823Z,-5.80
2022-12-15T05:50:10.653Z,-5.90
2022-12-15T05:52:37.323Z,-5.90
2022-12-15T05:55:04.216Z,-5.90
2022-12-15T05:57:30.917Z,-5.80
2022-12-15T05:59:57.649Z,-5.80
2022-12-15T06:02:24.361Z,-5.80
2022-12-15T06:04:51.245Z,-5.80
2022-12-15T06:07:17.954Z,-5.70
2022-12-15T06:09:44.636Z,-5.70
2022-12-15T06:12:11.309Z,-5.60
2022-12-15T06:14:38.308Z,-5.60
2022-12-15T06:17:05.090Z,-5.60
2022-12-15T06:19:31.839Z,-5.60
2022-12-15T06:21:58.631Z,-5.60
2022-12-15T06:24:26.096Z,-5.60
2022-12-15T06:26:52.850Z,-5.70
2022-12-15T06:29:19.591Z,-5.80
2022-12-15T06:31:46.780Z,-5.90
2022-12-15T06:34:15.725Z,-6.10
2022-12-15T06:36:42.803Z,-6.20
2022-12-15T06:39:12.309Z,-6.20
2022-12-15T06:41:39.826Z,-6.20
2022-12-15T06:44:06.869Z,-6.10
2022-12-15T06:46:35.179Z,-6.00
2022-12-15T06:49:02.056Z,-6.00
2022-12-15T06:51:29.190Z,-6.20
2022-12-15T06:53:56.422Z,-6.10
2022-12-15T06:56:34.085Z,-6.00
2022-12-15T06:59:03.558Z,-6.10
2022-12-15T07:01:31.071Z,-6.20
2022-12-15T07:04:00.422Z,-6.20
2022-12-15T07:06:28.307Z,-6.10
2022-12-15T07:08:56.827Z,-6.00
2022-12-15T07:11:23.983Z,-6.10
2022-12-15T07:13:54.295Z,-6.10
2022-12-15T07:16:22.592Z,-6.20
2022-12-15T07:18:49.834Z,-6.10
2022-12-15T07:21:17.351Z,-5.90
2022-12-15T07:24:00.927Z,-6.10
2022-12-15T07:26:28.775Z,-6.30
2022-12-15T07:28:56.277Z,-6.40
2022-12-15T07:31:23.490Z,-6.40
2022-12-15T07:33:52.422Z,-6.40
2022-12-15T07:36:19.565Z,-6.50
2022-12-15T07:38:50.007Z,-6.30
2022-12-15T07:41:18.383Z,-6.10
2022-12-15T07:43:46.603Z,-6.00
2022-12-15T07:46:13.424Z,-5.90
2022-12-15T07:48:40.184Z,-5.80
2022-12-15T07:51:12.320Z,-5.70
2022-12-15T07:53:42.376Z,-5.70
2022-12-15T07:56:10.107Z,-5.70
2022-12-15T07:58:37.960Z,-5.90
2022-12-15T08:01:10.494Z,-5.90
2022-12-15T08:03:37.999Z,-5.90
2022-12-15T08:06:06.726Z,-5.90
2022-12-15T08:08:34.571Z,-5.90
2022-12-15T08:11:09.357Z,-5.80
2022-12-15T08:14:02.125Z,-5.70
2022-12-15T08:16:24.595Z,-5.60
2022-12-15T08:18:51.325Z,-5.50
2022-12-15T08:21:18.571Z,-5.60
2022-12-15T08:23:45.533Z,-5.60
2022-12-15T08:26:15.115Z,-5.60
2022-12-15T08:28:42.843Z,-5.60
2022-12-15T08:31:12.959Z,-5.60
2022-12-15T08:33:40.135Z,-5.40
2022-12-15T08:36:09.404Z,-5.20
2022-12-15T08:38:38.652Z,-5.10
2022-12-15T08:41:14.392Z,-5.10
2022-12-15T08:43:48.163Z,-5.20
2022-12-15T08:46:17.380Z,-5.20
2022-12-15T08:48:44.970Z,-5.00
2022-12-15T08:51:12.224Z,-4.90
2022-12-15T08:53:39.038Z,-4.80
2022-12-15T08:56:15.914Z,-4.70
2022-12-15T08:58:43.074Z,-4.50
2022-12-15T09:01:20.572Z,-4.50
2022-12-15T09:03:50.540Z,-4.40
2022-12-15T09:06:32.574Z,-4.40
2022-12-15T09:09:02.691Z,-4.40
2022-12-15T09:11:30.697Z,-4.40
2022-12-15T09:13:58.047Z,-4.30
2022-12-15T09:16:25.659Z,-4.20
2022-12-15T09:18:57.536Z,-4.20
2022-12-15T09:21:26.766Z,-4.10
2022-12-15T09:23:58.427Z,-4.10
2022-12-15T09:26:25.146Z,-4.00
2022-12-15T09:28:53.068Z,-3.90
2022-12-15T09:31:22.944Z,-3.80
2022-12-15T09:33:51.971Z,-3.80
2022-12-15T09:36:18.983Z,-3.70
2022-12-15T09:38:45.797Z,-3.60
2022-12-15T09:41:15.333Z,-3.50
2022-12-15T09:43:49.933Z,-3.50
2022-12-15T09:46:28.369Z,-3.30
2022-12-15T09:48:59.897Z,-3.20
2022-12-15T09:51:36.409Z,-3.10
2022-12-15T09:54:03.665Z,-3.00
2022-12-15T09:56:49.933Z,-2.80
2022-12-15T09:59:26.393Z,-2.80
2022-12-15T10:02:38.907Z,-2.70
2022-12-15T10:06:06.180Z,-2.60
2022-12-15T10:08:50.752Z,-2.50
2022-12-15T10:11:50.300Z,-2.50
2022-12-15T10:14:50.266Z,-2.50
2022-12-15T10:17:26.838Z,-2.30
2022-12-15T10:20:06.381Z,-2.40
2022-12-15T10:22:36.884Z,-2.30
2022-12-15T10:25:30.142Z,-2.30
2022-12-15T10:28:16.121Z,-2.10
2022-12-15T10:30:52.148Z,-2.10
2022-12-15T10:33:25.044Z,-2.10
2022-12-15T10:35:55.660Z,-2.00
2022-12-15T10:38:31.288Z,-1.90
2022-12-15T10:41:04.277Z,-1.90
2022-12-15T10:43:43.815Z,-1.80
2022-12-15T10:46:20.601Z,-1.80
2022-12-15T10:49:07.600Z,-1.70
2022-12-15T10:51:42.733Z,-1.70
2022-12-15T10:54:15.488Z,-1.70
2022-12-15T10:56:54.631Z,-1.70
2022-12-15T10:59:31.879Z,-1.60
2022-12-15T11:02:24.029Z,-1.60
2022-12-15T11:05:17.100Z,-1.40
2022-12-15T11:07:53.283Z,-1.30
2022-12-15T11:10:50.511Z,-1.30
2022-12-15T11:13:22.783Z,-1.40
2022-12-15T11:15:55.130Z,-1.30
2022-12-15T11:18:36.872Z,-1.10
2022-12-15T11:21:24.641Z,-1.10
2022-12-15T11:24:02.487Z,-1.10
2022-12-15T11:26:49.112Z,-1.00
2022-12-15T11:29:36.834Z,-1.00
2022-12-15T11:32:07.268Z,-1.00
2022-12-15T11:34:47.648Z,-1.00
2022-12-15T11:37:36.910Z,-1.00
2022-12-15T11:40:16.987Z,-0.90
2022-12-15T11:43:01.962Z,-0.80
2022-12-15T11:45:59.824Z,-0.80
2022-12-15T11:48:46.594Z,-0.80
2022-12-15T11:51:26.061Z,-0.80
2022-12-15T11:54:18.600Z,-0.80
2022-12-15T11:56:56.638Z,-0.80
2022-12-15T11:59:55.015Z,-0.70
2022-12-15T12:02:48.317Z,-0.70
2022-12-15T12:05:43.955Z,-0.60
2022-12-15T12:08:35.712Z,-0.60
2022-12-15T12:11:23.896Z,-0.60
2022-12-15T12:14:12.203Z,-0.60
2022-12-15T12:16:41.921Z,-0.50
2022-12-15T12:19:20.114Z,-0.60
2022-12-15T12:21:51.117Z,-0.50
2022-12-15T12:24:50.811Z,-0.50
2022-12-15T12:27:39.555Z,-0.40
2022-12-15T12:30:11.972Z,-0.40
2022-12-15T12:33:03.182Z,-0.50
2022-12-15T12:35:52.862Z,-0.40
2022-12-15T12:38:31.236Z,-0.40
2022-12-15T12:41:11.675Z,-0.40
2022-12-15T12:43:50.991Z,-0.40
2022-12-15T12:46:40.475Z,-0.30
2022-12-15T12:49:26.274Z,-0.20
2022-12-15T12:51:55.813Z,-0.30
2022-12-15T12:54:34.379Z,-0.30
2022-12-15T12:57:11.145Z,-0.30
2022-12-15T12:59:57.925Z,-0.20
2022-12-15T13:02:25.789Z,-0.30
2022-12-15T13:05:00.001Z,-0.30
2022-12-15T13:07:38.887Z,-0.20
2022-12-15T13:10:08.633Z,-0.20
2022-12-15T13:15:41.169Z,-0.20
2022-12-15T13:18:21.220Z,-0.30
2022-12-15T13:20:50.874Z,-0.30
2022-12-15T13:23:24.142Z,-0.20
2022-12-15T13:25:56.785Z,-0.20
2022-12-15T13:28:23.941Z,-0.30
2022-12-15T13:34:18.083Z,-0.40
2022-12-15T13:36:54.298Z,-0.20
2022-12-15T13:39:28.018Z,-0.10
2022-12-15T13:42:32.163Z,-0.20
2022-12-15T13:44:51.971Z,-0.20
2022-12-15T13:47:30.891Z,-0.20
2022-12-15T13:50:18.253Z,0.00
2022-12-15T13:55:46.238Z,-0.20
2022-12-15T13:58:19.375Z,-0.10
2022-12-15T14:00:57.059Z,0.00
2022-12-15T14:03:24.219Z,-0.10
2022-12-15T14:05:59.283Z,-0.30
2022-12-15T14:08:28.748Z,-0.40
2022-12-15T14:10:58.198Z,-0.60
2022-12-15T14:13:33.845Z,-0.70
2022-12-15T14:16:21.915Z,-0.70
2022-12-15T14:19:05.177Z,-0.80
2022-12-15T14:21:31.906Z,-0.80
2022-12-15T14:24:37.466Z,-0.80
2022-12-15T14:26:45.384Z,-0.80
2022-12-15T14:29:13.146Z,-0.90
2022-12-15T14:31:40.716Z,-0.90
2022-12-15T14:34:13.608Z,-0.90
2022-12-15T14:36:42.127Z,-0.90
2022-12-15T14:39:34.771Z,-1.10
2022-12-15T14:42:02.938Z,-1.20
2022-12-15T14:44:38.074Z,-1.20
2022-12-15T14:47:22.302Z,-1.00
2022-12-15T14:49:50.200Z,-0.90
2022-12-15T14:52:29.880Z,-1.00
2022-12-15T14:55:02.273Z,-1.10
2022-12-15T14:57:45.275Z,-1.00
2022-12-15T15:00:48.778Z,-1.10
2022-12-15T15:03:07.366Z,-0.20
2022-12-15T15:03:11.640Z,-0.20
2022-12-15T15:03:19.976Z,-1.10
2022-12-15T15:05:51.031Z,-1.00
2022-12-15T15:08:26.648Z,-1.10
2022-12-15T15:10:56.170Z,-1.20
2022-12-15T15:13:39.377Z,-1.20
2022-12-15T15:16:13.043Z,-1.30
2022-12-15T15:18:41.343Z,-1.40
2022-12-15T15:21:14.187Z,-1.50
2022-12-15T15:23:40.957Z,-1.60
2022-12-15T15:26:10.522Z,-1.50
2022-12-15T15:28:42.006Z,-1.60
2022-12-15T15:31:29.106Z,-1.60
2022-12-15T15:33:57.978Z,-1.70
2022-12-15T15:36:31.359Z,-1.70
2022-12-15T15:38:58.335Z,-1.80
2022-12-15T15:41:30.829Z,-1.90
2022-12-15T15:43:59.638Z,-2.10
2022-12-15T15:46:29.932Z,-2.20
2022-12-15T15:49:00.864Z,-2.20
2022-12-15T15:51:29.340Z,-2.30
2022-12-15T15:54:04.657Z,-2.40
2022-12-15T15:56:31.515Z,-2.50
2022-12-15T15:59:02.495Z,-2.40
2022-12-15T16:01:29.333Z,-2.30
2022-12-15T16:03:56.299Z,-2.40
2022-12-15T16:06:24.231Z,-2.40
2022-12-15T16:08:53.867Z,-2.50
2022-12-15T16:11:26.591Z,-2.60
2022-12-15T16:13:53.657Z,-2.70
2022-12-15T16:16:23.861Z,-2.70
2022-12-15T16:18:50.723Z,-2.70
2022-12-15T16:21:19.826Z,-2.80
2022-12-15T16:23:48.459Z,-2.80
2022-12-15T16:26:17.884Z,-2.80
2022-12-15T16:28:47.804Z,-2.70
2022-12-15T16:31:27.080Z,-2.60
2022-12-15T16:33:53.963Z,-2.70
2022-12-15T16:36:20.776Z,-2.60
2022-12-15T16:38:47.504Z,-2.50
2022-12-15T16:41:17.513Z,-2.40
2022-12-15T16:43:48.292Z,-2.40
2022-12-15T16:46:16.159Z,-2.40
2022-12-15T16:48:43.485Z,-2.40
2022-12-15T16:51:34.240Z,-2.50
2022-12-15T16:54:01.273Z,-2.40
2022-12-15T16:56:28.005Z,-2.40
2022-12-15T16:59:15.511Z,-2.40
2022-12-15T17:01:44.492Z,-2.50
2022-12-15T17:04:12.056Z,-2.50
2022-12-15T17:06:39.180Z,-2.50
2022-12-15T17:09:08.839Z,-2.60
2022-12-15T17:11:35.799Z,-2.60
2022-12-15T17:14:02.535Z,-2.70
2022-12-15T17:16:30.012Z,-2.80
2022-12-15T17:18:56.771Z,-2.80
2022-12-15T17:21:32.005Z,-2.80
2022-12-15T17:24:04.496Z,-2.70
2022-12-15T17:26:34.791Z,-2.70
2022-12-15T17:29:08.188Z,-2.70
2022-12-15T17:31:36.159Z,-2.80
2022-12-15T17:34:32.888Z,-2.80
2022-12-15T17:37:04.837Z,-2.80
2022-12-15T17:39:34.105Z,-2.90
2022-12-15T17:42:02.080Z,-2.90
2022-12-15T17:44:34.477Z,-2.90
2022-12-15T17:47:04.553Z,-2.90
2022-12-15T17:49:35.474Z,-2.90
2022-12-15T17:52:06.616Z,-2.90
2022-12-15T17:54:34.056Z,-3.00
2022-12-15T17:57:00.944Z,-3.00
2022-12-15T17:59:27.672Z,-3.00
2022-12-15T18:01:57.424Z,-3.00
2022-12-15T18:04:24.489Z,-3.00
2022-12-15T18:06:56.644Z,-3.10
2022-12-15T18:09:27.915Z,-3.10
2022-12-15T18:11:54.690Z,-3.10
2022-12-15T18:14:23.023Z,-3.20
2022-12-15T18:16:50.214Z,-3.30
2022-12-15T18:19:16.987Z,-3.20
2022-12-15T18:21:43.844Z,-3.20
2022-12-15T18:24:17.201Z,-3.40
2022-12-15T18:26:44.755Z,-3.40
2022-12-15T18:29:19.920Z,-3.40
2022-12-15T18:31:48.557Z,-3.40
2022-12-15T18:34:21.445Z,-3.50
2022-12-15T18:36:48.395Z,-3.50
2022-12-15T18:39:23.787Z,-3.50
2022-12-15T18:41:52.641Z,-3.50
2022-12-15T18:44:25.249Z,-3.50
2022-12-15T18:46:52.617Z,-3.40
2022-12-15T18:49:22.400Z,-3.30
2022-12-15T18:51:49.460Z,-3.30
2022-12-15T18:54:22.503Z,-3.40
2022-12-15T18:56:49.875Z,-3.40
2022-12-15T18:59:17.874Z,-3.50
2022-12-15T19:01:46.431Z,-3.50
2022-12-15T19:04:13.752Z,-3.50
2022-12-15T19:06:41.039Z,-3.60
2022-12-15T19:09:17.079Z,-3.60
2022-12-15T19:12:18.244Z,-3.80
2022-12-15T19:14:47.570Z,-3.90
2022-12-15T19:17:36.302Z,-3.90
2022-12-15T19:20:24.650Z,-4.10
2022-12-15T19:22:52.247Z,-4.30
2022-12-15T19:25:27.983Z,-4.30
2022-12-15T19:27:59.145Z,-4.40
2022-12-15T19:30:30.024Z,-4.40
2022-12-15T19:32:58.649Z,-4.30
2022-12-15T19:35:27.456Z,-4.30
2022-12-15T19:37:57.484Z,-4.20
2022-12-15T19:40:27.778Z,-4.10
2022-12-15T19:42:55.520Z,-4.20
2022-12-15T19:45:27.479Z,-4.30
2022-12-15T19:50:31.256Z,-4.40
2022-12-15T19:53:04.408Z,-4.40
2022-12-15T19:55:33.717Z,-4.50
2022-12-15T19:58:06.703Z,-4.50
2022-12-15T20:00:33.407Z,-4.70
2022-12-15T20:03:00.204Z,-4.60
2022-12-15T20:05:27.005Z,-4.50
2022-12-15T20:07:54.777Z,-4.40
2022-12-15T20:10:31.863Z,-4.40
2022-12-15T20:13:00.919Z,-4.30
2022-12-15T20:15:27.981Z,-4.20
2022-12-15T20:17:58.003Z,-4.30
2022-12-15T20:20:27.952Z,-4.30
2022-12-15T20:22:57.309Z,-4.50
2022-12-15T20:25:28.060Z,-4.50
2022-12-15T20:27:55.023Z,-4.40
2022-12-15T20:30:27.676Z,-4.50
2022-12-15T20:32:54.824Z,-4.40
2022-12-15T20:35:22.704Z,-4.40
2022-12-15T20:37:50.967Z,-4.40
2022-12-15T20:40:26.924Z,-4.50
2022-12-15T20:42:54.908Z,-4.60
2022-12-15T20:45:25.109Z,-4.60
2022-12-15T20:50:32.187Z,-4.70
2022-12-15T20:52:59.160Z,-4.70
2022-12-15T20:55:25.949Z,-4.80
2022-12-15T20:57:53.074Z,-4.90
2022-12-15T21:00:20.897Z,-4.80
2022-12-15T21:02:48.454Z,-4.80
2022-12-15T21:05:22.083Z,-4.70
2022-12-15T21:07:50.035Z,-4.80
2022-12-15T21:10:19.532Z,-4.80
2022-12-15T21:12:48.341Z,-4.80
2022-12-15T21:15:21.210Z,-4.80
2022-12-15T21:17:57.309Z,-4.80
2022-12-15T21:20:30.540Z,-4.90
2022-12-15T21:22:57.717Z,-4.90
2022-12-15T21:25:26.350Z,-5.00
2022-12-15T21:27:53.101Z,-5.00
2022-12-15T21:30:22.608Z,-5.00
2022-12-15T21:32:50.566Z,-4.90
2022-12-15T21:35:19.433Z,-4.90
2022-12-15T21:37:51.682Z,-4.70
2022-12-15T21:40:24.935Z,-4.70
2022-12-15T21:42:52.978Z,-4.80
2022-12-15T21:45:25.256Z,-4.90
2022-12-15T21:50:18.800Z,-5.00
2022-12-15T21:52:46.793Z,-5.00
2022-12-15T21:55:18.182Z,-5.10
2022-12-15T21:57:45.692Z,-5.30
2022-12-15T22:00:15.220Z,-5.40
2022-12-15T22:02:42.191Z,-5.50
2022-12-15T22:05:15.971Z,-5.50
2022-12-15T22:07:42.729Z,-5.40
2022-12-15T22:10:10.210Z,-5.50
2022-12-15T22:12:38.158Z,-5.60
2022-12-15T22:15:14.181Z,-5.60
2022-12-15T22:17:41.855Z,-5.70
2022-12-15T22:20:20.995Z,-5.70
2022-12-15T22:22:48.397Z,-5.70
2022-12-15T22:25:21.147Z,-5.70
2022-12-15T22:27:48.827Z,-5.70
2022-12-15T22:30:21.725Z,-5.70
2022-12-15T22:32:48.968Z,-5.70
2022-12-15T22:35:17.812Z,-5.70
2022-12-15T22:37:45.474Z,-5.70
2022-12-15T22:40:13.625Z,-5.70
2022-12-15T22:42:44.113Z,-5.50
2022-12-15T22:45:19.510Z,-5.50
2022-12-15T22:50:24.077Z,-5.40
2022-12-15T22:52:50.911Z,-5.40
2022-12-15T22:55:20.609Z,-5.30
2022-12-15T22:57:56.151Z,-5.50
2022-12-15T23:00:22.996Z,-5.40
2022-12-15T23:02:49.857Z,-5.30
2022-12-15T23:05:19.543Z,-5.20
2022-12-15T23:07:47.099Z,-5.10
2022-12-15T23:10:35.294Z,-5.20
2022-12-15T23:13:02.163Z,-5.40
2022-12-15T23:15:47.945Z,-5.50
2022-12-15T23:18:15.017Z,-5.60
2022-12-15T23:20:41.847Z,-5.70
2022-12-15T23:23:09.880Z,-5.70
2022-12-15T23:25:36.824Z,-5.70
2022-12-15T23:28:04.368Z,-5.50
2022-12-15T23:30:31.177Z,-5.50
2022-12-15T23:32:57.876Z,-5.50
2022-12-15T23:35:24.567Z,-5.50
2022-12-15T23:37:51.406Z,-5.50
2022-12-15T23:40:24.365Z,-5.60
2022-12-15T23:42:51.890Z,-5.40
2022-12-15T23:45:20.238Z,-5.40
2022-12-15T23:50:24.292Z,-5.80
2022-12-15T23:52:51.983Z,-5.80
2022-12-15T23:55:19.293Z,-5.80
2022-12-15T23:57:46.483Z,-5.80
